sensor_id;sensor_type;location;lat;lon;timestamp;P1;durP1;ratioP1;P2;durP2;ratioP2
73550;SDS011;61816;53.582;10.096;2023-08-20T00:00:47;28.67;;;10.50;;
73550;SDS011;61816;53.582;10.096;2023-08-20T00:03:13;50.33;;;14.73;;
73550;SDS011;61816;53.582;10.096;2023-08-20T00:05:41;30.98;;;9.68;;
73550;SDS011;61816;53.582;10.096;2023-08-20T00:08:07;35.42;;;9.25;;
73550;SDS011;61816;53.582;10.096;2023-08-20T00:10:32;26.20;;;9.27;;
73550;SDS011;61816;53.582;10.096;2023-08-20T00:12:58;37.75;;;10.23;;
73550;SDS011;61816;53.582;10.096;2023-08-20T00:15:24;44.28;;;10.52;;
73550;SDS011;61816;53.582;10.096;2023-08-20T00:17:52;21.27;;;9.35;;
73550;SDS011;61816;53.582;10.096;2023-08-20T00:20:18;31.25;;;9.98;;
73550;SDS011;61816;53.582;10.096;2023-08-20T00:22:44;39.17;;;10.38;;
73550;SDS011;61816;53.582;10.096;2023-08-20T00:25:11;38.60;;;9.50;;
73550;SDS011;61816;53.582;10.096;2023-08-20T00:27:38;33.88;;;9.75;;
73550;SDS011;61816;53.582;10.096;2023-08-20T00:30:04;34.08;;;9.80;;
73550;SDS011;61816;53.582;10.096;2023-08-20T00:32:29;31.77;;;9.32;;
73550;SDS011;61816;53.582;10.096;2023-08-20T00:34:55;38.90;;;11.13;;
73550;SDS011;61816;53.582;10.096;2023-08-20T00:37:21;35.40;;;10.55;;
73550;SDS011;61816;53.582;10.096;2023-08-20T00:39:46;35.70;;;10.68;;
73550;SDS011;61816;53.582;10.096;2023-08-20T00:42:11;31.23;;;11.25;;
73550;SDS011;61816;53.582;10.096;2023-08-20T00:44:39;34.05;;;9.93;;
73550;SDS011;61816;53.582;10.096;2023-08-20T00:47:06;46.10;;;10.90;;
73550;SDS011;61816;53.582;10.096;2023-08-20T00:49:32;45.42;;;12.02;;
73550;SDS011;61816;53.582;10.096;2023-08-20T00:51:58;33.67;;;10.80;;
73550;SDS011;61816;53.582;10.096;2023-08-20T00:54:24;39.30;;;11.80;;
73550;SDS011;61816;53.582;10.096;2023-08-20T00:56:51;43.80;;;11.70;;
73550;SDS011;61816;53.582;10.096;2023-08-20T00:59:17;46.75;;;12.10;;
73550;SDS011;61816;53.582;10.096;2023-08-20T01:01:43;34.72;;;10.57;;
73550;SDS011;61816;53.582;10.096;2023-08-20T01:04:09;33.83;;;11.52;;
73550;SDS011;61816;53.582;10.096;2023-08-20T01:06:59;39.38;;;13.00;;
73550;SDS011;61816;53.582;10.096;2023-08-20T01:12:07;31.25;;;12.18;;
73550;SDS011;61816;53.582;10.096;2023-08-20T01:14:41;43.15;;;11.55;;
73550;SDS011;61816;53.582;10.096;2023-08-20T01:17:06;39.20;;;10.95;;
73550;SDS011;61816;53.582;10.096;2023-08-20T01:19:31;32.88;;;10.77;;
73550;SDS011;61816;53.582;10.096;2023-08-20T01:30:07;37.15;;;10.60;;
73550;SDS011;61816;53.582;10.096;2023-08-20T01:32:37;31.83;;;10.95;;
73550;SDS011;61816;53.582;10.096;2023-08-20T01:35:07;32.30;;;10.27;;
73550;SDS011;61816;53.582;10.096;2023-08-20T01:37:36;28.10;;;9.43;;
73550;SDS011;61816;53.582;10.096;2023-08-20T01:40:01;24.35;;;9.45;;
73550;SDS011;61816;53.582;10.096;2023-08-20T01:42:28;33.75;;;12.05;;
73550;SDS011;61816;53.582;10.096;2023-08-20T01:44:54;37.20;;;11.82;;
73550;SDS011;61816;53.582;10.096;2023-08-20T01:47:19;31.25;;;10.65;;
73550;SDS011;61816;53.582;10.096;2023-08-20T01:49:45;34.00;;;12.10;;
73550;SDS011;61816;53.582;10.096;2023-08-20T01:52:10;30.90;;;10.27;;
73550;SDS011;61816;53.582;10.096;2023-08-20T01:54:36;31.08;;;11.00;;
73550;SDS011;61816;53.582;10.096;2023-08-20T01:57:01;39.28;;;11.48;;
73550;SDS011;61816;53.582;10.096;2023-08-20T01:59:26;35.30;;;12.07;;
73550;SDS011;61816;53.582;10.096;2023-08-20T02:01:52;38.83;;;11.77;;
73550;SDS011;61816;53.582;10.096;2023-08-20T02:04:17;32.90;;;12.13;;
73550;SDS011;61816;53.582;10.096;2023-08-20T02:06:42;36.72;;;11.55;;
73550;SDS011;61816;53.582;10.096;2023-08-20T02:09:07;34.42;;;10.32;;
73550;SDS011;61816;53.582;10.096;2023-08-20T02:11:33;32.38;;;10.48;;
73550;SDS011;61816;53.582;10.096;2023-08-20T02:14:01;29.38;;;10.77;;
73550;SDS011;61816;53.582;10.096;2023-08-20T02:16:27;27.88;;;10.75;;
73550;SDS011;61816;53.582;10.096;2023-08-20T02:18:52;26.42;;;10.82;;
73550;SDS011;61816;53.582;10.096;2023-08-20T02:21:18;26.52;;;10.40;;
73550;SDS011;61816;53.582;10.096;2023-08-20T02:23:43;28.42;;;10.13;;
73550;SDS011;61816;53.582;10.096;2023-08-20T02:26:09;34.75;;;13.18;;
73550;SDS011;61816;53.582;10.096;2023-08-20T02:28:35;30.15;;;12.55;;
73550;SDS011;61816;53.582;10.096;2023-08-20T02:31:03;22.42;;;9.82;;
73550;SDS011;61816;53.582;10.096;2023-08-20T02:33:29;37.22;;;12.40;;
73550;SDS011;61816;53.582;10.096;2023-08-20T02:35:54;41.58;;;14.48;;
73550;SDS011;61816;53.582;10.096;2023-08-20T02:38:20;33.33;;;13.02;;
73550;SDS011;61816;53.582;10.096;2023-08-20T02:40:45;36.03;;;12.48;;
73550;SDS011;61816;53.582;10.096;2023-08-20T02:43:11;42.08;;;13.82;;
73550;SDS011;61816;53.582;10.096;2023-08-20T02:45:42;38.33;;;13.10;;
73550;SDS011;61816;53.582;10.096;2023-08-20T02:48:08;31.25;;;13.57;;
73550;SDS011;61816;53.582;10.096;2023-08-20T02:50:34;26.73;;;12.43;;
73550;SDS011;61816;53.582;10.096;2023-08-20T02:52:59;32.80;;;12.20;;
73550;SDS011;61816;53.582;10.096;2023-08-20T02:55:24;41.08;;;12.48;;
73550;SDS011;61816;53.582;10.096;2023-08-20T02:57:50;33.28;;;13.30;;
73550;SDS011;61816;53.582;10.096;2023-08-20T03:00:15;33.45;;;14.27;;
73550;SDS011;61816;53.582;10.096;2023-08-20T03:02:40;39.25;;;12.25;;
73550;SDS011;61816;53.582;10.096;2023-08-20T03:05:07;38.72;;;14.32;;
73550;SDS011;61816;53.582;10.096;2023-08-20T03:07:34;33.42;;;13.93;;
73550;SDS011;61816;53.582;10.096;2023-08-20T03:09:59;26.80;;;13.98;;
73550;SDS011;61816;53.582;10.096;2023-08-20T03:12:25;35.65;;;13.63;;
73550;SDS011;61816;53.582;10.096;2023-08-20T03:14:50;33.90;;;12.68;;
73550;SDS011;61816;53.582;10.096;2023-08-20T03:17:15;25.10;;;11.10;;
73550;SDS011;61816;53.582;10.096;2023-08-20T03:19:53;39.58;;;13.00;;
73550;SDS011;61816;53.582;10.096;2023-08-20T03:22:20;42.95;;;15.00;;
73550;SDS011;61816;53.582;10.096;2023-08-20T03:24:45;40.40;;;16.55;;
73550;SDS011;61816;53.582;10.096;2023-08-20T03:27:10;41.30;;;16.30;;
73550;SDS011;61816;53.582;10.096;2023-08-20T03:29:36;36.30;;;14.80;;
73550;SDS011;61816;53.582;10.096;2023-08-20T03:32:01;41.15;;;15.10;;
73550;SDS011;61816;53.582;10.096;2023-08-20T03:34:27;40.70;;;14.68;;
73550;SDS011;61816;53.582;10.096;2023-08-20T03:36:52;33.90;;;14.63;;
73550;SDS011;61816;53.582;10.096;2023-08-20T03:39:17;29.05;;;12.35;;
73550;SDS011;61816;53.582;10.096;2023-08-20T03:41:43;36.45;;;15.13;;
73550;SDS011;61816;53.582;10.096;2023-08-20T03:44:08;48.85;;;16.77;;
73550;SDS011;61816;53.582;10.096;2023-08-20T03:46:33;36.50;;;13.57;;
73550;SDS011;61816;53.582;10.096;2023-08-20T03:48:59;48.80;;;15.43;;
73550;SDS011;61816;53.582;10.096;2023-08-20T03:51:24;32.50;;;13.65;;
73550;SDS011;61816;53.582;10.096;2023-08-20T03:53:49;20.75;;;9.57;;
73550;SDS011;61816;53.582;10.096;2023-08-20T03:56:15;27.52;;;12.75;;
73550;SDS011;61816;53.582;10.096;2023-08-20T03:58:40;28.15;;;12.82;;
73550;SDS011;61816;53.582;10.096;2023-08-20T04:01:06;31.73;;;12.68;;
73550;SDS011;61816;53.582;10.096;2023-08-20T04:03:31;30.95;;;12.90;;
73550;SDS011;61816;53.582;10.096;2023-08-20T04:05:57;34.75;;;14.43;;
73550;SDS011;61816;53.582;10.096;2023-08-20T04:08:22;37.15;;;14.40;;
73550;SDS011;61816;53.582;10.096;2023-08-20T04:10:47;43.60;;;14.63;;
73550;SDS011;61816;53.582;10.096;2023-08-20T04:13:13;39.08;;;14.85;;
73550;SDS011;61816;53.582;10.096;2023-08-20T04:15:39;39.00;;;15.27;;
73550;SDS011;61816;53.582;10.096;2023-08-20T04:18:06;30.38;;;12.63;;
73550;SDS011;61816;53.582;10.096;2023-08-20T04:20:31;36.13;;;14.30;;
73550;SDS011;61816;53.582;10.096;2023-08-20T04:22:57;23.40;;;11.60;;
73550;SDS011;61816;53.582;10.096;2023-08-20T04:25:22;38.42;;;14.90;;
73550;SDS011;61816;53.582;10.096;2023-08-20T04:27:47;42.60;;;17.55;;
73550;SDS011;61816;53.582;10.096;2023-08-20T04:30:13;37.80;;;15.55;;
73550;SDS011;61816;53.582;10.096;2023-08-20T04:32:38;33.03;;;13.70;;
73550;SDS011;61816;53.582;10.096;2023-08-20T04:35:04;27.67;;;13.63;;
73550;SDS011;61816;53.582;10.096;2023-08-20T04:37:29;37.90;;;16.25;;
73550;SDS011;61816;53.582;10.096;2023-08-20T04:39:55;45.42;;;15.38;;
73550;SDS011;61816;53.582;10.096;2023-08-20T04:42:20;34.65;;;17.08;;
73550;SDS011;61816;53.582;10.096;2023-08-20T04:44:45;36.40;;;15.38;;
73550;SDS011;61816;53.582;10.096;2023-08-20T04:47:11;39.53;;;16.65;;
73550;SDS011;61816;53.582;10.096;2023-08-20T04:49:37;49.10;;;18.83;;
73550;SDS011;61816;53.582;10.096;2023-08-20T04:52:03;31.48;;;14.25;;
73550;SDS011;61816;53.582;10.096;2023-08-20T04:54:29;29.63;;;13.82;;
73550;SDS011;61816;53.582;10.096;2023-08-20T04:56:54;38.70;;;16.70;;
73550;SDS011;61816;53.582;10.096;2023-08-20T04:59:19;31.52;;;14.85;;
73550;SDS011;61816;53.582;10.096;2023-08-20T05:01:45;41.40;;;16.90;;
73550;SDS011;61816;53.582;10.096;2023-08-20T05:04:10;44.38;;;17.20;;
73550;SDS011;61816;53.582;10.096;2023-08-20T05:06:35;46.10;;;18.00;;
73550;SDS011;61816;53.582;10.096;2023-08-20T05:09:01;47.85;;;18.52;;
73550;SDS011;61816;53.582;10.096;2023-08-20T05:11:26;39.72;;;17.92;;
73550;SDS011;61816;53.582;10.096;2023-08-20T05:13:55;37.85;;;17.63;;
73550;SDS011;61816;53.582;10.096;2023-08-20T05:16:20;44.45;;;17.38;;
73550;SDS011;61816;53.582;10.096;2023-08-20T05:18:45;56.50;;;20.73;;
73550;SDS011;61816;53.582;10.096;2023-08-20T05:21:11;81.43;;;29.80;;
73550;SDS011;61816;53.582;10.096;2023-08-20T05:23:38;273.88;;;42.45;;
73550;SDS011;61816;53.582;10.096;2023-08-20T05:26:05;97.40;;;25.40;;
73550;SDS011;61816;53.582;10.096;2023-08-20T05:28:31;83.93;;;25.50;;
73550;SDS011;61816;53.582;10.096;2023-08-20T05:30:56;148.18;;;35.20;;
73550;SDS011;61816;53.582;10.096;2023-08-20T05:33:22;351.77;;;45.05;;
73550;SDS011;61816;53.582;10.096;2023-08-20T05:35:48;101.00;;;31.77;;
73550;SDS011;61816;53.582;10.096;2023-08-20T05:38:14;237.13;;;41.97;;
73550;SDS011;61816;53.582;10.096;2023-08-20T05:40:39;249.07;;;49.40;;
73550;SDS011;61816;53.582;10.096;2023-08-20T05:43:05;110.57;;;37.70;;
73550;SDS011;61816;53.582;10.096;2023-08-20T05:45:30;159.30;;;42.22;;
73550;SDS011;61816;53.582;10.096;2023-08-20T05:47:55;233.90;;;47.30;;
73550;SDS011;61816;53.582;10.096;2023-08-20T05:50:21;229.25;;;44.95;;
73550;SDS011;61816;53.582;10.096;2023-08-20T05:52:46;212.70;;;44.15;;
73550;SDS011;61816;53.582;10.096;2023-08-20T05:55:11;280.98;;;56.95;;
73550;SDS011;61816;53.582;10.096;2023-08-20T05:57:37;128.45;;;41.97;;
73550;SDS011;61816;53.582;10.096;2023-08-20T06:00:03;143.48;;;45.72;;
73550;SDS011;61816;53.582;10.096;2023-08-20T06:02:29;137.68;;;55.58;;
73550;SDS011;61816;53.582;10.096;2023-08-20T06:04:55;136.00;;;44.47;;
73550;SDS011;61816;53.582;10.096;2023-08-20T06:07:20;278.25;;;50.83;;
73550;SDS011;61816;53.582;10.096;2023-08-20T06:09:46;193.25;;;42.35;;
73550;SDS011;61816;53.582;10.096;2023-08-20T06:12:11;182.40;;;37.92;;
73550;SDS011;61816;53.582;10.096;2023-08-20T06:14:36;244.98;;;41.38;;
73550;SDS011;61816;53.582;10.096;2023-08-20T06:17:02;194.38;;;39.38;;
73550;SDS011;61816;53.582;10.096;2023-08-20T06:19:27;116.30;;;32.22;;
73550;SDS011;61816;53.582;10.096;2023-08-20T06:21:54;285.67;;;36.50;;
73550;SDS011;61816;53.582;10.096;2023-08-20T06:24:19;130.02;;;34.78;;
73550;SDS011;61816;53.582;10.096;2023-08-20T06:26:44;377.90;;;35.90;;
73550;SDS011;61816;53.582;10.096;2023-08-20T06:29:10;264.38;;;38.63;;
73550;SDS011;61816;53.582;10.096;2023-08-20T06:31:35;381.70;;;50.55;;
73550;SDS011;61816;53.582;10.096;2023-08-20T06:34:00;328.00;;;39.80;;
73550;SDS011;61816;53.582;10.096;2023-08-20T06:36:26;117.05;;;35.10;;
73550;SDS011;61816;53.582;10.096;2023-08-20T06:38:51;174.18;;;24.75;;
73550;SDS011;61816;53.582;10.096;2023-08-20T06:41:17;94.18;;;19.35;;
73550;SDS011;61816;53.582;10.096;2023-08-20T06:43:42;210.32;;;24.13;;
73550;SDS011;61816;53.582;10.096;2023-08-20T06:46:08;254.60;;;27.42;;
73550;SDS011;61816;53.582;10.096;2023-08-20T06:48:34;120.40;;;25.73;;
73550;SDS011;61816;53.582;10.096;2023-08-20T06:51:07;64.22;;;26.38;;
73550;SDS011;61816;53.582;10.096;2023-08-20T06:53:36;152.10;;;30.05;;
73550;SDS011;61816;53.582;10.096;2023-08-20T06:56:02;94.38;;;24.77;;
73550;SDS011;61816;53.582;10.096;2023-08-20T06:58:27;230.68;;;29.75;;
73550;SDS011;61816;53.582;10.096;2023-08-20T07:00:52;68.55;;;27.10;;
73550;SDS011;61816;53.582;10.096;2023-08-20T07:03:18;254.95;;;33.25;;
73550;SDS011;61816;53.582;10.096;2023-08-20T07:05:44;82.93;;;27.50;;
73550;SDS011;61816;53.582;10.096;2023-08-20T07:08:09;49.10;;;22.77;;
73550;SDS011;61816;53.582;10.096;2023-08-20T07:10:34;77.45;;;28.27;;
73550;SDS011;61816;53.582;10.096;2023-08-20T07:13:00;71.88;;;29.73;;
73550;SDS011;61816;53.582;10.096;2023-08-20T07:15:25;63.33;;;28.73;;
73550;SDS011;61816;53.582;10.096;2023-08-20T07:17:50;73.38;;;32.35;;
73550;SDS011;61816;53.582;10.096;2023-08-20T07:20:16;67.65;;;31.13;;
73550;SDS011;61816;53.582;10.096;2023-08-20T07:22:41;65.80;;;33.83;;
73550;SDS011;61816;53.582;10.096;2023-08-20T07:25:07;63.88;;;34.97;;
73550;SDS011;61816;53.582;10.096;2023-08-20T07:27:33;81.50;;;35.28;;
73550;SDS011;61816;53.582;10.096;2023-08-20T07:29:59;64.53;;;35.40;;
73550;SDS011;61816;53.582;10.096;2023-08-20T07:32:24;63.58;;;34.70;;
73550;SDS011;61816;53.582;10.096;2023-08-20T07:34:50;71.07;;;36.65;;
73550;SDS011;61816;53.582;10.096;2023-08-20T07:37:15;57.70;;;34.85;;
73550;SDS011;61816;53.582;10.096;2023-08-20T07:39:40;59.65;;;34.47;;
73550;SDS011;61816;53.582;10.096;2023-08-20T07:42:06;66.05;;;35.22;;
73550;SDS011;61816;53.582;10.096;2023-08-20T07:44:31;60.97;;;35.28;;
73550;SDS011;61816;53.582;10.096;2023-08-20T07:46:57;61.72;;;35.33;;
73550;SDS011;61816;53.582;10.096;2023-08-20T07:49:22;70.10;;;35.97;;
73550;SDS011;61816;53.582;10.096;2023-08-20T07:51:48;71.10;;;39.97;;
73550;SDS011;61816;53.582;10.096;2023-08-20T07:54:14;63.33;;;35.17;;
73550;SDS011;61816;53.582;10.096;2023-08-20T07:56:39;64.78;;;36.55;;
73550;SDS011;61816;53.582;10.096;2023-08-20T07:59:05;61.67;;;32.60;;
73550;SDS011;61816;53.582;10.096;2023-08-20T08:01:30;48.08;;;27.38;;
73550;SDS011;61816;53.582;10.096;2023-08-20T08:03:56;51.80;;;27.75;;
73550;SDS011;61816;53.582;10.096;2023-08-20T08:06:21;56.63;;;30.15;;
73550;SDS011;61816;53.582;10.096;2023-08-20T08:08:48;50.17;;;26.25;;
73550;SDS011;61816;53.582;10.096;2023-08-20T08:11:14;44.75;;;25.50;;
73550;SDS011;61816;53.582;10.096;2023-08-20T08:13:39;40.60;;;24.58;;
73550;SDS011;61816;53.582;10.096;2023-08-20T08:16:05;41.78;;;23.23;;
73550;SDS011;61816;53.582;10.096;2023-08-20T08:18:30;42.05;;;22.25;;
73550;SDS011;61816;53.582;10.096;2023-08-20T08:20:55;36.70;;;21.48;;
73550;SDS011;61816;53.582;10.096;2023-08-20T08:23:21;41.00;;;21.35;;
73550;SDS011;61816;53.582;10.096;2023-08-20T08:25:46;30.75;;;18.00;;
73550;SDS011;61816;53.582;10.096;2023-08-20T08:28:11;33.22;;;17.38;;
73550;SDS011;61816;53.582;10.096;2023-08-20T08:30:37;23.30;;;12.50;;
73550;SDS011;61816;53.582;10.096;2023-08-20T08:33:03;16.20;;;6.70;;
73550;SDS011;61816;53.582;10.096;2023-08-20T08:35:29;19.92;;;5.78;;
73550;SDS011;61816;53.582;10.096;2023-08-20T08:37:55;17.85;;;4.25;;
73550;SDS011;61816;53.582;10.096;2023-08-20T08:40:20;16.42;;;4.28;;
73550;SDS011;61816;53.582;10.096;2023-08-20T08:42:48;15.98;;;5.53;;
73550;SDS011;61816;53.582;10.096;2023-08-20T08:45:20;11.98;;;4.50;;
73550;SDS011;61816;53.582;10.096;2023-08-20T08:47:46;13.93;;;5.18;;
73550;SDS011;61816;53.582;10.096;2023-08-20T08:50:13;9.82;;;3.90;;
73550;SDS011;61816;53.582;10.096;2023-08-20T08:52:39;9.93;;;4.13;;
73550;SDS011;61816;53.582;10.096;2023-08-20T08:55:06;11.43;;;3.60;;
73550;SDS011;61816;53.582;10.096;2023-08-20T08:57:34;10.02;;;3.15;;
73550;SDS011;61816;53.582;10.096;2023-08-20T09:00:02;9.65;;;3.20;;
73550;SDS011;61816;53.582;10.096;2023-08-20T09:02:28;14.07;;;3.72;;
73550;SDS011;61816;53.582;10.096;2023-08-20T09:04:54;13.63;;;3.22;;
73550;SDS011;61816;53.582;10.096;2023-08-20T09:07:20;11.20;;;3.28;;
73550;SDS011;61816;53.582;10.096;2023-08-20T09:09:45;10.50;;;3.25;;
73550;SDS011;61816;53.582;10.096;2023-08-20T09:12:12;13.35;;;3.67;;
73550;SDS011;61816;53.582;10.096;2023-08-20T09:14:39;11.63;;;3.95;;
73550;SDS011;61816;53.582;10.096;2023-08-20T09:17:05;8.85;;;3.47;;
73550;SDS011;61816;53.582;10.096;2023-08-20T09:19:34;11.45;;;3.38;;
73550;SDS011;61816;53.582;10.096;2023-08-20T09:22:02;13.48;;;3.17;;
73550;SDS011;61816;53.582;10.096;2023-08-20T09:24:39;12.43;;;3.70;;
73550;SDS011;61816;53.582;10.096;2023-08-20T09:27:07;19.95;;;4.20;;
73550;SDS011;61816;53.582;10.096;2023-08-20T09:29:33;8.60;;;3.03;;
73550;SDS011;61816;53.582;10.096;2023-08-20T09:32:08;12.38;;;3.03;;
73550;SDS011;61816;53.582;10.096;2023-08-20T09:34:39;11.60;;;3.17;;
73550;SDS011;61816;53.582;10.096;2023-08-20T09:37:18;22.67;;;4.75;;
73550;SDS011;61816;53.582;10.096;2023-08-20T09:39:45;9.75;;;3.10;;
73550;SDS011;61816;53.582;10.096;2023-08-20T09:42:11;15.45;;;3.00;;
73550;SDS011;61816;53.582;10.096;2023-08-20T09:44:39;10.63;;;2.90;;
73550;SDS011;61816;53.582;10.096;2023-08-20T09:47:06;7.93;;;3.08;;
73550;SDS011;61816;53.582;10.096;2023-08-20T09:49:44;13.15;;;3.17;;
73550;SDS011;61816;53.582;10.096;2023-08-20T09:52:12;16.17;;;3.47;;
73550;SDS011;61816;53.582;10.096;2023-08-20T09:57:34;9.30;;;3.43;;
73550;SDS011;61816;53.582;10.096;2023-08-20T10:00:01;15.90;;;4.55;;
73550;SDS011;61816;53.582;10.096;2023-08-20T10:02:28;10.00;;;3.20;;
73550;SDS011;61816;53.582;10.096;2023-08-20T10:04:54;11.65;;;4.03;;
73550;SDS011;61816;53.582;10.096;2023-08-20T10:07:20;12.43;;;4.03;;
73550;SDS011;61816;53.582;10.096;2023-08-20T10:09:49;9.07;;;3.33;;
73550;SDS011;61816;53.582;10.096;2023-08-20T10:12:16;17.70;;;4.28;;
73550;SDS011;61816;53.582;10.096;2023-08-20T10:14:42;13.95;;;4.05;;
73550;SDS011;61816;53.582;10.096;2023-08-20T10:17:08;9.60;;;3.03;;
73550;SDS011;61816;53.582;10.096;2023-08-20T10:19:35;19.15;;;4.22;;
73550;SDS011;61816;53.582;10.096;2023-08-20T10:22:03;15.10;;;3.47;;
73550;SDS011;61816;53.582;10.096;2023-08-20T10:24:28;14.48;;;3.83;;
73550;SDS011;61816;53.582;10.096;2023-08-20T10:27:27;11.50;;;4.10;;
73550;SDS011;61816;53.582;10.096;2023-08-20T10:29:57;17.65;;;4.00;;
73550;SDS011;61816;53.582;10.096;2023-08-20T10:35:09;17.48;;;4.38;;
73550;SDS011;61816;53.582;10.096;2023-08-20T10:37:34;17.60;;;3.88;;
73550;SDS011;61816;53.582;10.096;2023-08-20T10:40:01;16.73;;;3.97;;
73550;SDS011;61816;53.582;10.096;2023-08-20T10:42:27;14.27;;;3.70;;
73550;SDS011;61816;53.582;10.096;2023-08-20T10:45:00;15.48;;;3.40;;
73550;SDS011;61816;53.582;10.096;2023-08-20T10:50:01;14.40;;;3.20;;
73550;SDS011;61816;53.582;10.096;2023-08-20T10:52:27;17.65;;;4.22;;
73550;SDS011;61816;53.582;10.096;2023-08-20T10:54:53;20.27;;;4.00;;
73550;SDS011;61816;53.582;10.096;2023-08-20T10:57:21;17.50;;;4.30;;
73550;SDS011;61816;53.582;10.096;2023-08-20T10:59:57;14.32;;;3.05;;
73550;SDS011;61816;53.582;10.096;2023-08-20T11:02:26;10.52;;;3.72;;
73550;SDS011;61816;53.582;10.096;2023-08-20T11:04:51;22.35;;;3.20;;
73550;SDS011;61816;53.582;10.096;2023-08-20T11:07:18;13.10;;;3.72;;
73550;SDS011;61816;53.582;10.096;2023-08-20T11:09:45;10.48;;;2.80;;
73550;SDS011;61816;53.582;10.096;2023-08-20T11:12:14;13.88;;;3.00;;
73550;SDS011;61816;53.582;10.096;2023-08-20T11:14:40;14.70;;;3.45;;
73550;SDS011;61816;53.582;10.096;2023-08-20T11:17:06;17.05;;;3.45;;
73550;SDS011;61816;53.582;10.096;2023-08-20T11:19:33;18.13;;;3.83;;
73550;SDS011;61816;53.582;10.096;2023-08-20T11:21:58;14.15;;;3.65;;
73550;SDS011;61816;53.582;10.096;2023-08-20T11:24:28;10.93;;;2.75;;
73550;SDS011;61816;53.582;10.096;2023-08-20T11:26:54;17.52;;;3.65;;
73550;SDS011;61816;53.582;10.096;2023-08-20T11:29:20;14.65;;;3.65;;
73550;SDS011;61816;53.582;10.096;2023-08-20T11:31:46;11.75;;;3.20;;
73550;SDS011;61816;53.582;10.096;2023-08-20T11:34:12;13.32;;;3.28;;
73550;SDS011;61816;53.582;10.096;2023-08-20T11:36:38;10.02;;;2.90;;
73550;SDS011;61816;53.582;10.096;2023-08-20T11:39:04;14.00;;;3.17;;
73550;SDS011;61816;53.582;10.096;2023-08-20T11:41:29;13.55;;;3.53;;
73550;SDS011;61816;53.582;10.096;2023-08-20T11:43:55;15.18;;;3.25;;
73550;SDS011;61816;53.582;10.096;2023-08-20T11:46:22;12.07;;;2.78;;
73550;SDS011;61816;53.582;10.096;2023-08-20T11:48:58;9.32;;;2.30;;
73550;SDS011;61816;53.582;10.096;2023-08-20T11:51:37;12.85;;;3.28;;
73550;SDS011;61816;53.582;10.096;2023-08-20T11:54:05;18.05;;;3.22;;
73550;SDS011;61816;53.582;10.096;2023-08-20T11:56:33;10.55;;;2.95;;
73550;SDS011;61816;53.582;10.096;2023-08-20T11:58:59;12.70;;;3.35;;
73550;SDS011;61816;53.582;10.096;2023-08-20T12:01:26;11.82;;;2.80;;
73550;SDS011;61816;53.582;10.096;2023-08-20T12:03:59;13.27;;;3.00;;
73550;SDS011;61816;53.582;10.096;2023-08-20T12:06:25;20.20;;;4.10;;
73550;SDS011;61816;53.582;10.096;2023-08-20T12:08:55;13.25;;;2.70;;
73550;SDS011;61816;53.582;10.096;2023-08-20T12:11:23;23.25;;;3.92;;
73550;SDS011;61816;53.582;10.096;2023-08-20T12:13:50;8.40;;;3.00;;
73550;SDS011;61816;53.582;10.096;2023-08-20T12:16:15;7.63;;;3.25;;
73550;SDS011;61816;53.582;10.096;2023-08-20T12:18:40;8.48;;;3.17;;
73550;SDS011;61816;53.582;10.096;2023-08-20T12:21:06;7.50;;;2.85;;
73550;SDS011;61816;53.582;10.096;2023-08-20T12:23:31;9.27;;;2.80;;
73550;SDS011;61816;53.582;10.096;2023-08-20T12:25:56;11.90;;;3.95;;
73550;SDS011;61816;53.582;10.096;2023-08-20T12:28:22;11.82;;;3.30;;
73550;SDS011;61816;53.582;10.096;2023-08-20T12:30:47;13.07;;;2.92;;
73550;SDS011;61816;53.582;10.096;2023-08-20T12:33:12;10.18;;;2.50;;
73550;SDS011;61816;53.582;10.096;2023-08-20T12:35:38;9.95;;;3.45;;
73550;SDS011;61816;53.582;10.096;2023-08-20T12:38:03;11.55;;;3.20;;
73550;SDS011;61816;53.582;10.096;2023-08-20T12:40:29;11.02;;;3.38;;
73550;SDS011;61816;53.582;10.096;2023-08-20T12:42:55;11.50;;;2.95;;
73550;SDS011;61816;53.582;10.096;2023-08-20T12:45:21;15.95;;;3.53;;
73550;SDS011;61816;53.582;10.096;2023-08-20T12:47:46;11.43;;;3.28;;
73550;SDS011;61816;53.582;10.096;2023-08-20T12:50:12;10.63;;;2.70;;
73550;SDS011;61816;53.582;10.096;2023-08-20T12:52:39;12.43;;;3.25;;
73550;SDS011;61816;53.582;10.096;2023-08-20T12:55:04;10.13;;;2.88;;
73550;SDS011;61816;53.582;10.096;2023-08-20T12:57:30;9.45;;;3.15;;
73550;SDS011;61816;53.582;10.096;2023-08-20T12:59:58;6.75;;;2.70;;
73550;SDS011;61816;53.582;10.096;2023-08-20T13:02:24;11.48;;;2.92;;
73550;SDS011;61816;53.582;10.096;2023-08-20T13:04:50;7.30;;;2.30;;
73550;SDS011;61816;53.582;10.096;2023-08-20T13:07:15;10.82;;;3.50;;
73550;SDS011;61816;53.582;10.096;2023-08-20T13:09:41;13.32;;;3.25;;
73550;SDS011;61816;53.582;10.096;2023-08-20T13:12:07;10.80;;;2.67;;
73550;SDS011;61816;53.582;10.096;2023-08-20T13:14:37;15.82;;;3.17;;
73550;SDS011;61816;53.582;10.096;2023-08-20T13:17:04;12.15;;;3.47;;
73550;SDS011;61816;53.582;10.096;2023-08-20T13:19:30;13.07;;;2.80;;
73550;SDS011;61816;53.582;10.096;2023-08-20T13:21:56;7.35;;;2.60;;
73550;SDS011;61816;53.582;10.096;2023-08-20T13:24:21;12.27;;;3.40;;
73550;SDS011;61816;53.582;10.096;2023-08-20T13:26:46;9.48;;;2.92;;
73550;SDS011;61816;53.582;10.096;2023-08-20T13:29:12;12.68;;;2.60;;
73550;SDS011;61816;53.582;10.096;2023-08-20T13:31:37;8.57;;;3.20;;
73550;SDS011;61816;53.582;10.096;2023-08-20T13:34:03;10.50;;;3.22;;
73550;SDS011;61816;53.582;10.096;2023-08-20T13:36:28;11.27;;;2.97;;
73550;SDS011;61816;53.582;10.096;2023-08-20T13:38:55;9.55;;;3.15;;
73550;SDS011;61816;53.582;10.096;2023-08-20T13:41:20;12.43;;;2.92;;
73550;SDS011;61816;53.582;10.096;2023-08-20T13:43:45;13.40;;;3.33;;
73550;SDS011;61816;53.582;10.096;2023-08-20T13:46:11;10.13;;;3.15;;
73550;SDS011;61816;53.582;10.096;2023-08-20T13:48:36;7.65;;;3.13;;
73550;SDS011;61816;53.582;10.096;2023-08-20T13:51:02;7.57;;;2.75;;
73550;SDS011;61816;53.582;10.096;2023-08-20T13:53:27;6.43;;;2.85;;
73550;SDS011;61816;53.582;10.096;2023-08-20T13:55:53;10.10;;;3.40;;
73550;SDS011;61816;53.582;10.096;2023-08-20T13:58:20;7.20;;;2.90;;
73550;SDS011;61816;53.582;10.096;2023-08-20T14:00:46;9.77;;;2.67;;
73550;SDS011;61816;53.582;10.096;2023-08-20T14:03:11;10.63;;;3.28;;
73550;SDS011;61816;53.582;10.096;2023-08-20T14:05:37;8.52;;;2.80;;
73550;SDS011;61816;53.582;10.096;2023-08-20T14:08:02;8.80;;;2.90;;
73550;SDS011;61816;53.582;10.096;2023-08-20T14:10:28;14.02;;;2.80;;
73550;SDS011;61816;53.582;10.096;2023-08-20T14:12:53;16.20;;;3.00;;
73550;SDS011;61816;53.582;10.096;2023-08-20T14:15:18;8.23;;;2.53;;
73550;SDS011;61816;53.582;10.096;2023-08-20T14:17:44;11.13;;;2.70;;
73550;SDS011;61816;53.582;10.096;2023-08-20T14:20:10;11.15;;;2.90;;
73550;SDS011;61816;53.582;10.096;2023-08-20T14:22:36;9.73;;;3.25;;
73550;SDS011;61816;53.582;10.096;2023-08-20T14:25:02;9.70;;;2.90;;
73550;SDS011;61816;53.582;10.096;2023-08-20T14:27:28;7.13;;;2.90;;